Time;durP1;ratioP1;P1;durP2;ratioP2;P2;SDS_P1;SDS_P2;PMS_P1;PMS_P2;Temp;Humidity;BMP_temperature;BMP_pressure;BME280_temperature;BME280_humidity;BME280_pressure;Samples;Min_cycle;Max_cycle;Signal;HPM_P1;HPM_P2
2023/08/27 00:02:42;;;;;;;11.68;5.45;;;;;;;-147.65;100.00;57646.63;10486179;28;20048;-77
2023/08/27 00:07:43;;;;;;;8.60;4.50;;;;;;;-147.65;100.00;57646.63;10469720;28;20033;-77
2023/08/27 00:12:43;;;;;;;8.10;5.13;;;;;;;-147.65;100.00;57646.63;10521141;28;20041;-77
2023/08/27 00:17:44;;;;;;;8.95;4.72;;;;;;;-147.65;100.00;57646.63;10486276;28;20614;-77
2023/08/27 00:22:44;;;;;;;9.98;7.78;;;;;;;-147.65;100.00;57646.63;10487645;28;20052;-77
2023/08/27 00:27:45;;;;;;;10.68;7.47;;;;;;;-147.65;100.00;57646.63;10485139;28;20079;-77
2023/08/27 00:32:45;;;;;;;8.15;7.20;;;;;;;-147.65;100.00;57646.63;10472607;28;20080;-78
2023/08/27 00:37:46;;;;;;;9.60;6.95;;;;;;;-147.65;100.00;57646.63;10483247;28;20429;-77
2023/08/27 00:42:46;;;;;;;12.13;6.70;;;;;;;-147.65;100.00;57646.63;10442265;28;20036;-77
2023/08/27 00:47:47;;;;;;;11.48;7.05;;;;;;;-147.65;100.00;57646.63;10442588;28;20044;-78
2023/08/27 00:52:47;;;;;;;12.05;5.90;;;;;;;-147.65;100.00;57646.63;10475193;28;20366;-78
2023/08/27 00:57:49;;;;;;;10.80;5.97;;;;;;;-147.65;100.00;57646.63;10495493;28;20045;-78
2023/08/27 01:02:49;;;;;;;10.85;5.32;;;;;;;-147.65;100.00;57646.63;10495198;28;20033;-77
2023/08/27 01:07:59;;;;;;;9.60;7.07;;;;;;;-147.65;100.00;57646.63;10484834;28;20496;-77
2023/08/27 01:13:02;;;;;;;10.25;7.13;;;;;;;-147.65;100.00;57646.63;10464362;28;20105;-77
2023/08/27 01:18:03;;;;;;;9.48;6.75;;;;;;;-147.65;100.00;57646.63;10458944;28;20041;-76
2023/08/27 01:23:04;;;;;;;12.00;8.27;;;;;;;-147.65;100.00;57646.63;10484344;28;20036;-77
2023/08/27 01:28:30;;;;;;;10.32;6.30;;;;;;;-147.65;100.00;57646.63;10482097;28;20036;-78
2023/08/27 01:33:31;;;;;;;9.88;5.82;;;;;;;-147.65;100.00;57646.63;10481926;28;20053;-78
2023/08/27 01:38:31;;;;;;;12.95;7.47;;;;;;;-147.65;100.00;57646.63;10482570;28;20048;-78
2023/08/27 01:43:32;;;;;;;10.23;7.07;;;;;;;-147.65;100.00;57646.63;10484138;28;20124;-78
2023/08/27 01:48:32;;;;;;;10.15;7.10;;;;;;;-147.65;100.00;57646.63;10484254;27;20518;-78
2023/08/27 01:53:33;;;;;;;8.68;5.25;;;;;;;-147.65;100.00;57646.63;10482058;28;22529;-77
2023/08/27 01:58:34;;;;;;;7.82;6.38;;;;;;;-147.65;100.00;57646.63;10469899;28;20048;-79
2023/08/27 02:03:34;;;;;;;9.27;5.50;;;;;;;-147.65;100.00;57646.63;10440159;28;20446;-77
2023/08/27 02:08:35;;;;;;;10.32;6.53;;;;;;;-147.65;100.00;57646.63;10442250;28;20041;-77
2023/08/27 02:13:35;;;;;;;9.25;6.18;;;;;;;-147.65;100.00;57646.63;10438487;28;20048;-76
2023/08/27 02:18:36;;;;;;;9.77;5.78;;;;;;;-147.65;100.00;57646.63;10460376;28;20048;-77
2023/08/27 02:23:36;;;;;;;8.10;6.10;;;;;;;-147.65;100.00;57646.63;10482040;28;20131;-77
2023/08/27 02:28:37;;;;;;;11.57;7.50;;;;;;;-147.65;100.00;57646.63;10462604;28;20041;-76
2023/08/27 02:33:37;;;;;;;12.60;6.40;;;;;;;-147.65;100.00;57646.63;10476260;28;20064;-76
2023/08/27 02:38:38;;;;;;;13.38;6.95;;;;;;;-147.65;100.00;57646.63;10499117;28;20037;-77
2023/08/27 02:43:38;;;;;;;10.15;7.15;;;;;;;-147.65;100.00;57646.63;10478014;28;20476;-77
2023/08/27 02:48:39;;;;;;;16.20;8.80;;;;;;;-147.65;100.00;57646.63;10484457;28;20076;-77
2023/08/27 02:53:39;;;;;;;11.95;6.95;;;;;;;-147.65;100.00;57646.63;10482856;28;20119;-77
2023/08/27 02:58:40;;;;;;;9.85;6.90;;;;;;;-147.65;100.00;57646.63;10487379;28;20037;-77
2023/08/27 03:03:40;;;;;;;11.38;6.80;;;;;;;-147.65;100.00;57646.63;10474479;28;20037;-77
2023/08/27 03:08:41;;;;;;;9.45;5.50;;;;;;;-147.65;100.00;57646.63;10504815;28;20047;-77
2023/08/27 03:13:41;;;;;;;7.82;5.40;;;;;;;-147.65;100.00;57646.63;10487285;28;20044;-77
2023/08/27 03:18:42;;;;;;;10.32;4.97;;;;;;;-147.65;100.00;57646.63;10476391;28;20111;-77
2023/08/27 03:23:42;;;;;;;7.35;4.47;;;;;;;-147.65;100.00;57646.63;10447370;28;20477;-77
2023/08/27 03:28:43;;;;;;;8.40;5.20;;;;;;;-147.65;100.00;57646.63;10486970;28;20053;-80
2023/08/27 03:33:44;;;;;;;8.38;5.50;;;;;;;-147.65;100.00;57646.63;10489458;28;20036;-78
2023/08/27 03:38:44;;;;;;;6.30;4.50;;;;;;;-147.65;100.00;57646.63;10488457;28;20036;-78
2023/08/27 03:43:45;;;;;;;11.68;6.80;;;;;;;-147.65;100.00;57646.63;10458700;28;20033;-76
2023/08/27 03:48:45;;;;;;;11.85;5.93;;;;;;;-147.65;100.00;57646.63;10489284;28;20042;-79
2023/08/27 03:53:46;;;;;;;10.23;7.10;;;;;;;-147.65;100.00;57646.63;10486769;28;20047;-77
2023/08/27 03:58:47;;;;;;;8.05;6.78;;;;;;;-147.65;100.00;57646.63;10449105;28;20036;-76
2023/08/27 04:03:48;;;;;;;10.57;6.05;;;;;;;-147.65;100.00;57646.63;10488627;28;20067;-77
2023/08/27 04:08:49;;;;;;;10.40;6.63;;;;;;;-147.65;100.00;57646.63;10477274;28;20047;-77
2023/08/27 04:13:49;;;;;;;11.68;5.38;;;;;;;-147.65;100.00;57646.63;10440920;28;20173;-78
2023/08/27 04:18:50;;;;;;;13.85;8.43;;;;;;;-147.65;100.00;57646.63;10457878;28;20033;-76
2023/08/27 04:23:51;;;;;;;11.68;6.40;;;;;;;-147.65;100.00;57646.63;10415908;28;20039;-77
2023/08/27 04:28:54;;;;;;;22.08;7.78;;;;;;;-147.65;100.00;57646.63;10442158;28;20047;-77
2023/08/27 04:33:55;;;;;;;8.55;5.82;;;;;;;-147.65;100.00;57646.63;10430032;28;20034;-77
2023/08/27 04:38:55;;;;;;;9.82;6.47;;;;;;;-147.65;100.00;57646.63;10439338;28;20048;-76
2023/08/27 04:43:56;;;;;;;16.98;9.60;;;;;;;-147.65;100.00;57646.63;10425779;28;20492;-76
2023/08/27 04:48:56;;;;;;;10.32;7.47;;;;;;;-147.65;100.00;57646.63;10431762;28;20112;-75
2023/08/27 04:53:57;;;;;;;13.05;9.05;;;;;;;-147.65;100.00;57646.63;10421623;28;20045;-76
2023/08/27 04:58:58;;;;;;;12.07;9.13;;;;;;;-147.65;100.00;57646.63;10442779;28;20045;-76
2023/08/27 05:03:58;;;;;;;12.70;6.65;;;;;;;-147.65;100.00;57646.63;10444435;28;20132;-76
2023/08/27 05:08:59;;;;;;;13.07;9.30;;;;;;;-147.65;100.00;57646.63;10443656;28;20060;-76
2023/08/27 05:13:59;;;;;;;12.18;7.93;;;;;;;-147.65;100.00;57646.63;10481786;28;20039;-75
2023/08/27 05:19:00;;;;;;;12.15;8.57;;;;;;;-147.65;100.00;57646.63;10499415;28;20392;-76
2023/08/27 05:24:00;;;;;;;13.05;8.45;;;;;;;-147.65;100.00;57646.63;10484093;28;20039;-77
2023/08/27 05:29:01;;;;;;;13.82;8.18;;;;;;;-147.65;100.00;57646.63;10483935;28;20425;-78
2023/08/27 05:34:02;;;;;;;18.00;11.52;;;;;;;-147.65;100.00;57646.63;10466155;28;20037;-78
2023/08/27 05:39:04;;;;;;;19.67;9.40;;;;;;;-147.65;100.00;57646.63;10482170;28;20387;-79
2023/08/27 05:44:06;;;;;;;14.48;10.05;;;;;;;-147.65;100.00;57646.63;10497676;28;20037;-77
2023/08/27 05:49:06;;;;;;;20.35;9.40;;;;;;;-147.65;100.00;57646.63;10483103;28;20055;-78
2023/08/27 05:54:07;;;;;;;12.75;8.52;;;;;;;-147.65;100.00;57646.63;10480903;28;20445;-78
2023/08/27 05:59:09;;;;;;;13.10;7.28;;;;;;;-147.65;100.00;57646.63;10483745;28;20046;-78
2023/08/27 06:04:09;;;;;;;13.40;9.88;;;;;;;-147.65;100.00;57646.63;10467495;28;20495;-77
2023/08/27 06:09:10;;;;;;;12.63;7.72;;;;;;;-147.65;100.00;57646.63;10482532;28;20037;-77
2023/08/27 06:14:10;;;;;;;12.93;7.10;;;;;;;-147.65;100.00;57646.63;10482790;28;20397;-78
2023/08/27 06:19:11;;;;;;;10.65;6.82;;;;;;;-147.65;100.00;57646.63;10474965;28;20063;-78
2023/08/27 06:24:11;;;;;;;9.93;6.72;;;;;;;-147.65;100.00;57646.63;10515720;28;20525;-78
2023/08/27 06:29:12;;;;;;;10.15;4.95;;;;;;;-147.65;100.00;57646.63;10482361;28;20494;-78
2023/08/27 06:34:12;;;;;;;9.05;6.15;;;;;;;-147.65;100.00;57646.63;10481649;28;20036;-78
2023/08/27 06:39:13;;;;;;;3.58;2.67;;;;;;;-147.65;100.00;57646.63;10483384;28;20036;-77
2023/08/27 06:44:13;;;;;;;4.50;2.80;;;;;;;-147.65;100.00;57646.63;10496283;28;20033;-79
2023/08/27 06:49:14;;;;;;;7.45;2.90;;;;;;;-147.65;100.00;57646.63;10480237;28;20048;-78
2023/08/27 06:54:14;;;;;;;6.17;2.10;;;;;;;-147.65;100.00;57646.63;10481228;28;20115;-77
2023/08/27 06:59:15;;;;;;;2.90;1.83;;;;;;;-147.65;100.00;57646.63;10482371;28;20051;-78
2023/08/27 07:04:15;;;;;;;5.07;1.90;;;;;;;-147.65;100.00;57646.63;10458346;28;20071;-78
2023/08/27 07:09:16;;;;;;;5.50;2.53;;;;;;;-147.65;100.00;57646.63;10480644;28;20041;-78
2023/08/27 07:14:16;;;;;;;6.60;3.07;;;;;;;-147.65;100.00;57646.63;10482246;28;20396;-78
2023/08/27 07:19:17;;;;;;;4.63;2.20;;;;;;;-147.65;100.00;57646.63;10481051;28;20637;-78
2023/08/27 07:24:17;;;;;;;7.57;3.97;;;;;;;-147.65;100.00;57646.63;10482062;28;20071;-78
2023/08/27 07:29:18;;;;;;;4.63;2.88;;;;;;;-147.65;100.00;57646.63;10480643;28;20090;-78
2023/08/27 07:34:18;;;;;;;3.67;2.38;;;;;;;-147.65;100.00;57646.63;10483956;28;20440;-78
2023/08/27 07:39:19;;;;;;;4.88;2.72;;;;;;;-147.65;100.00;57646.63;10487932;28;20112;-78
2023/08/27 07:44:19;;;;;;;4.45;2.67;;;;;;;-147.65;100.00;57646.63;10489703;28;20127;-78
2023/08/27 07:49:20;;;;;;;7.20;2.10;;;;;;;-147.65;100.00;57646.63;10489030;28;20464;-78
2023/08/27 07:54:20;;;;;;;6.10;2.78;;;;;;;-147.65;100.00;57646.63;10486998;28;20029;-78
2023/08/27 07:59:21;;;;;;;5.28;3.03;;;;;;;-147.65;100.00;57646.63;10486523;28;20055;-78
2023/08/27 08:04:22;;;;;;;8.07;3.38;;;;;;;-147.65;100.00;57646.63;10489085;28;20556;-78
2023/08/27 08:09:22;;;;;;;6.25;2.60;;;;;;;-147.65;100.00;57646.63;10503457;28;20047;-78
2023/08/27 08:14:23;;;;;;;5.63;2.38;;;;;;;-147.65;100.00;57646.63;10487984;28;20033;-79
2023/08/27 08:19:23;;;;;;;7.97;3.75;;;;;;;-147.65;100.00;57646.63;10487682;28;20501;-78
2023/08/27 08:24:24;;;;;;;6.65;3.40;;;;;;;-147.65;100.00;57646.63;10487415;28;20472;-78
2023/08/27 08:29:24;;;;;;;4.22;2.58;;;;;;;-147.65;100.00;57646.63;10503315;28;20028;-78
2023/08/27 08:34:28;;;;;;;5.82;2.85;;;;;;;-147.65;100.00;57646.63;10486244;28;20036;-78
2023/08/27 08:39:28;;;;;;;3.92;2.03;;;;;;;-147.65;100.00;57646.63;10485603;28;20415;-78
2023/08/27 08:44:35;;;;;;;9.05;4.07;;;;;;;-147.65;100.00;57646.63;10518869;28;20131;-78
2023/08/27 08:49:38;;;;;;;4.78;2.38;;;;;;;-147.65;100.00;57646.63;10517647;28;20039;-78
2023/08/27 08:54:39;;;;;;;3.92;2.90;;;;;;;-147.65;100.00;57646.63;10485040;28;20041;-78
2023/08/27 08:59:39;;;;;;;6.80;2.63;;;;;;;-147.65;100.00;57646.63;10518334;28;20422;-78
2023/08/27 09:04:41;;;;;;;5.87;3.37;;;;;;;-147.65;100.00;57646.63;10502056;28;20040;-78
2023/08/27 09:09:41;;;;;;;4.75;2.67;;;;;;;-147.65;100.00;57646.63;10483247;28;20047;-78
2023/08/27 09:14:42;;;;;;;6.47;3.37;;;;;;;-147.65;100.00;57646.63;10467936;28;20038;-77
2023/08/27 09:19:43;;;;;;;7.57;3.00;;;;;;;-147.65;100.00;57646.63;10500866;28;20059;-77
2023/08/27 09:24:45;;;;;;;7.50;2.97;;;;;;;-147.65;100.00;57646.63;10483344;28;20102;-78
2023/08/27 09:29:46;;;;;;;7.43;2.55;;;;;;;-147.65;100.00;57646.63;10516525;28;20036;-79
2023/08/27 09:34:46;;;;;;;5.82;2.55;;;;;;;-147.65;100.00;57646.63;10476473;28;20037;-78
2023/08/27 09:39:47;;;;;;;4.47;2.67;;;;;;;-147.65;100.00;57646.63;10493447;28;20060;-78
2023/08/27 09:44:51;;;;;;;6.27;2.07;;;;;;;-147.65;100.00;57646.63;10499407;28;20376;-78
2023/08/27 09:49:52;;;;;;;6.00;1.40;;;;;;;-147.65;100.00;57646.63;10517134;28;20115;-78
2023/08/27 09:54:53;;;;;;;6.27;2.10;;;;;;;-147.65;100.00;57646.63;10482162;28;20036;-78
2023/08/27 09:59:53;;;;;;;7.30;1.80;;;;;;;-147.65;100.00;57646.63;10481699;28;20039;-78
2023/08/27 10:04:55;;;;;;;5.43;1.53;;;;;;;-147.65;100.00;57646.63;10516156;28;20093;-78
2023/08/27 10:09:55;;;;;;;;;;;;;;;-147.65;100.00;57646.63;10483501;28;20036;-78
2023/08/27 10:14:56;;;;;;;1.63;0.97;;;;;;;-147.65;100.00;57646.63;10482020;28;19928;-78
2023/08/27 10:19:57;;;;;;;6.43;1.23;;;;;;;-147.65;100.00;57646.63;10481901;28;20267;-78
2023/08/27 10:24:58;;;;;;;5.55;1.00;;;;;;;-147.65;100.00;57646.63;10465728;28;20037;-77
2023/08/27 10:29:58;;;;;;;5.47;1.63;;;;;;;-147.65;100.00;57646.63;10464300;28;20044;-78
2023/08/27 10:34:59;;;;;;;5.83;2.33;;;;;;;-147.65;100.00;57646.63;10481355;28;20094;-77
2023/08/27 10:40:00;;;;;;;4.35;1.27;;;;;;;-147.65;100.00;57646.63;10482677;28;20048;-78
2023/08/27 10:45:18;;;;;;;2.53;1.47;;;;;;;-147.65;100.00;57646.63;10482702;28;20052;-78
2023/08/27 10:50:21;;;;;;;3.30;1.40;;;;;;;-147.65;100.00;57646.63;10456709;28;20468;-79
2023/08/27 10:55:34;;;;;;;4.28;1.05;;;;;;;-147.65;100.00;57646.63;10452640;28;20102;-78
2023/08/27 11:01:00;;;;;;;1.13;0.70;;;;;;;-147.65;100.00;57646.63;10464223;28;20044;-78
2023/08/27 11:06:10;;;;;;;3.70;1.13;;;;;;;-147.65;100.00;57646.63;10467431;28;20029;-78
2023/08/27 11:11:12;;;;;;;3.40;1.25;;;;;;;-147.65;100.00;57646.63;10468138;28;20041;-79
2023/08/27 11:16:15;;;;;;;4.53;1.00;;;;;;;-147.65;100.00;57646.63;10470196;28;20032;-79
2023/08/27 11:21:44;;;;;;;3.95;1.92;;;;;;;-147.65;100.00;57646.63;10447263;28;20500;-79
2023/08/27 11:26:46;;;;;;;3.38;0.77;;;;;;;-147.65;100.00;57646.63;10484338;28;20033;-78
2023/08/27 11:31:47;;;;;;;2.08;1.15;;;;;;;-147.65;100.00;57646.63;10486874;28;20407;-77
2023/08/27 11:36:48;;;;;;;3.87;1.13;;;;;;;-147.65;100.00;57646.63;10522255;28;20039;-80
2023/08/27 11:41:50;;;;;;;;;;;;;;;-147.65;100.00;57646.63;10489911;28;20575;-79
2023/08/27 11:46:53;;;;;;;2.00;0.73;;;;;;;-147.65;100.00;57646.63;10487806;28;20328;-79
2023/08/27 11:51:58;;;;;;;3.85;1.10;;;;;;;-147.65;100.00;57646.63;10487329;28;20037;-78
2023/08/27 11:56:59;;;;;;;3.55;1.77;;;;;;;-147.65;100.00;57646.63;10486340;28;20451;-78
2023/08/27 12:01:59;;;;;;;3.63;1.63;;;;;;;-147.65;100.00;57646.63;10488666;28;20033;-80
2023/08/27 12:07:00;;;;;;;1.65;1.05;;;;;;;-147.65;100.00;57646.63;10486039;28;20831;-79
2023/08/27 12:12:06;;;;;;;1.57;1.00;;;;;;;-147.65;100.00;57646.63;10486022;28;20086;-78
2023/08/27 12:17:07;;;;;;;2.75;1.20;;;;;;;-147.65;100.00;57646.63;10489474;28;20427;-78
2023/08/27 12:22:08;;;;;;;2.75;0.90;;;;;;;-147.65;100.00;57646.63;10485896;28;20036;-79
2023/08/27 12:27:10;;;;;;;3.63;1.23;;;;;;;-147.65;100.00;57646.63;10519989;28;20028;-79
2023/08/27 12:32:11;;;;;;;;;;;;;;;-147.65;100.00;57646.63;10484790;28;20075;-79
2023/08/27 12:37:12;;;;;;;1.67;0.98;;;;;;;-147.65;100.00;57646.63;10484248;28;19963;-80
2023/08/27 12:42:14;;;;;;;3.13;1.07;;;;;;;-147.65;100.00;57646.63;10423155;28;20128;-80
2023/08/27 12:47:15;;;;;;;3.75;1.17;;;;;;;-147.65;100.00;57646.63;10441667;28;20041;-80
2023/08/27 12:52:15;;;;;;;1.30;0.60;;;;;;;-147.65;100.00;57646.63;10442108;28;20420;-81
2023/08/27 12:57:16;;;;;;;1.57;0.80;;;;;;;-147.65;100.00;57646.63;10424855;28;20033;-80
2023/08/27 13:02:19;;;;;;;1.93;0.63;;;;;;;-147.65;100.00;57646.63;10442317;28;20041;-79
2023/08/27 13:07:20;;;;;;;6.63;2.38;;;;;;;-147.65;100.00;57646.63;10424509;28;20556;-78
2023/08/27 13:12:20;;;;;;;3.45;1.38;;;;;;;-147.65;100.00;57646.63;10426156;28;20052;-79
2023/08/27 13:17:21;;;;;;;7.03;1.48;;;;;;;-147.65;100.00;57646.63;10444542;28;20125;-78
2023/08/27 13:22:22;;;;;;;6.15;1.67;;;;;;;-147.65;100.00;57646.63;10440841;28;20481;-78
2023/08/27 13:27:23;;;;;;;2.78;1.77;;;;;;;-147.65;100.00;57646.63;10411853;28;20052;-78
2023/08/27 13:32:24;;;;;;;3.40;1.67;;;;;;;-147.65;100.00;57646.63;10464830;28;20068;-78
2023/08/27 13:37:24;;;;;;;3.60;2.15;;;;;;;-147.65;100.00;57646.63;10464588;28;20610;-79
2023/08/27 13:42:25;;;;;;;4.78;2.10;;;;;;;-147.65;100.00;57646.63;10455356;28;20058;-78
2023/08/27 13:47:25;;;;;;;6.00;2.40;;;;;;;-147.65;100.00;57646.63;10481939;28;20047;-78
2023/08/27 13:52:26;;;;;;;4.80;2.50;;;;;;;-147.65;100.00;57646.63;10483420;28;20123;-78
2023/08/27 13:57:26;;;;;;;5.50;3.05;;;;;;;-147.65;100.00;57646.63;10497482;28;20510;-78
2023/08/27 14:02:27;;;;;;;7.05;2.35;;;;;;;-147.65;100.00;57646.63;10482868;28;20056;-78
2023/08/27 14:07:28;;;;;;;3.40;2.10;;;;;;;-147.65;100.00;57646.63;10481808;28;20050;-78
2023/08/27 14:12:29;;;;;;;9.48;2.53;;;;;;;-147.65;100.00;57646.63;10481000;28;20044;-78
2023/08/27 14:17:29;;;;;;;9.30;1.98;;;;;;;-147.65;100.00;57646.63;10483035;28;20054;-77
2023/08/27 14:22:30;;;;;;;2.30;1.48;;;;;;;-147.65;100.00;57646.63;10481632;28;20488;-77
2023/08/27 14:27:31;;;;;;;2.63;1.77;;;;;;;-147.65;100.00;57646.63;10481041;28;20040;-77
2023/08/27 14:32:31;;;;;;;3.00;2.05;;;;;;;-147.65;100.00;57646.63;10480831;28;20101;-77
2023/08/27 14:37:32;;;;;;;3.92;2.00;;;;;;;-147.65;100.00;57646.63;10482050;28;20089;-78
2023/08/27 14:42:33;;;;;;;3.65;2.22;;;;;;;-147.65;100.00;57646.63;10481633;28;20049;-76
2023/08/27 14:47:34;;;;;;;1.75;1.55;;;;;;;-147.65;100.00;57646.63;10489992;28;20059;-78
2023/08/27 14:52:35;;;;;;;16.23;11.10;;;;;;;-147.65;100.00;57646.63;10474793;28;20388;-77
2023/08/27 14:57:35;;;;;;;4.18;2.40;;;;;;;-147.65;100.00;57646.63;10518844;28;20044;-77
2023/08/27 15:02:36;;;;;;;5.35;3.35;;;;;;;-147.65;100.00;57646.63;10489668;28;20048;-77
2023/08/27 15:07:36;;;;;;;7.18;3.45;;;;;;;-147.65;100.00;57646.63;10489868;28;20047;-78
2023/08/27 15:12:37;;;;;;;4.55;2.00;;;;;;;-147.65;100.00;57646.63;10488738;28;20040;-78
2023/08/27 15:17:39;;;;;;;3.83;2.35;;;;;;;-147.65;100.00;57646.63;10489813;28;20046;-77
2023/08/27 15:22:39;;;;;;;4.20;1.80;;;;;;;-147.65;100.00;57646.63;10481963;27;20043;-77
2023/08/27 15:27:40;;;;;;;2.78;1.60;;;;;;;-147.65;100.00;57646.63;10489353;28;20119;-78
2023/08/27 15:32:41;;;;;;;5.35;1.85;;;;;;;-147.65;100.00;57646.63;10488952;28;20071;-77
2023/08/27 15:37:45;;;;;;;4.10;1.83;;;;;;;-147.65;100.00;57646.63;10488140;28;20045;-78
2023/08/27 15:42:47;;;;;;;3.42;1.75;;;;;;;-147.65;100.00;57646.63;10487339;28;20037;-77
2023/08/27 15:47:48;;;;;;;4.22;2.20;;;;;;;-147.65;100.00;57646.63;10469753;28;20050;-77
2023/08/27 15:52:48;;;;;;;3.58;1.45;;;;;;;-147.65;100.00;57646.63;10464884;28;20403;-77
2023/08/27 15:57:49;;;;;;;3.05;1.80;;;;;;;-147.65;100.00;57646.63;10408344;28;20045;-79
2023/08/27 16:02:49;;;;;;;5.50;1.83;;;;;;;-147.65;100.00;57646.63;10477140;28;20397;-82
2023/08/27 16:07:50;;;;;;;4.32;1.95;;;;;;;-147.65;100.00;57646.63;10457833;28;20051;-81
2023/08/27 16:12:50;;;;;;;2.80;1.75;;;;;;;-147.65;100.00;57646.63;10442016;28;20033;-79
2023/08/27 16:17:51;;;;;;;4.20;2.03;;;;;;;-147.65;100.00;57646.63;10442920;28;20041;-79
2023/08/27 16:22:51;;;;;;;4.22;1.58;;;;;;;-147.65;100.00;57646.63;10443761;28;20423;-78
2023/08/27 16:27:52;;;;;;;2.28;1.50;;;;;;;-147.65;100.00;57646.63;10441435;28;20040;-78
2023/08/27 16:32:52;;;;;;;2.63;1.65;;;;;;;-147.65;100.00;57646.63;10415865;28;20037;-77
2023/08/27 16:37:53;;;;;;;4.18;1.52;;;;;;;-147.65;100.00;57646.63;10445325;28;20040;-78
2023/08/27 16:42:54;;;;;;;2.15;1.42;;;;;;;-147.65;100.00;57646.63;10442893;28;20068;-78
2023/08/27 16:47:54;;;;;;;4.13;1.55;;;;;;;-147.65;100.00;57646.63;10427054;28;20124;-78
2023/08/27 16:52:56;;;;;;;2.55;1.83;;;;;;;-147.65;100.00;57646.63;10442826;28;20037;-78
2023/08/27 16:57:57;;;;;;;3.47;1.48;;;;;;;-147.65;100.00;57646.63;10466479;28;20399;-78
2023/08/27 17:02:59;;;;;;;5.10;1.63;;;;;;;-147.65;100.00;57646.63;10484901;28;20115;-78
2023/08/27 17:07:59;;;;;;;4.20;1.80;;;;;;;-147.65;100.00;57646.63;10464309;28;20036;-78
2023/08/27 17:13:00;;;;;;;3.90;2.17;;;;;;;-147.65;100.00;57646.63;10484292;28;20045;-78
2023/08/27 17:18:01;;;;;;;3.40;2.05;;;;;;;-147.65;100.00;57646.63;10484124;28;20036;-78
2023/08/27 17:23:01;;;;;;;3.95;1.95;;;;;;;-147.65;100.00;57646.63;10476314;28;20484;-78
2023/08/27 17:28:02;;;;;;;5.43;2.20;;;;;;;-147.65;100.00;57646.63;10490788;28;20045;-79
2023/08/27 17:33:03;;;;;;;6.20;2.60;;;;;;;-147.65;100.00;57646.63;10484678;28;20442;-78
2023/08/27 17:38:04;;;;;;;5.85;2.63;;;;;;;-147.65;100.00;57646.63;10477470;28;20044;-78
2023/08/27 17:43:04;;;;;;;7.00;2.42;;;;;;;-147.65;100.00;57646.63;10475487;28;20032;-78
2023/08/27 17:48:05;;;;;;;4.20;1.77;;;;;;;-147.65;100.00;57646.63;10485800;28;20032;-78
2023/08/27 17:53:06;;;;;;;30.50;2.92;;;;;;;-147.65;100.00;57646.63;10481621;28;20127;-81
2023/08/27 17:58:07;;;;;;;5.20;3.10;;;;;;;-147.65;100.00;57646.63;10452680;28;20170;-85
2023/08/27 18:03:08;;;;;;;7.78;2.03;;;;;;;-147.65;100.00;57646.63;10479631;28;20406;-81
2023/08/27 18:08:08;;;;;;;6.43;3.17;;;;;;;-147.65;100.00;57646.63;10479745;28;20025;-83
2023/08/27 18:13:09;;;;;;;6.88;2.78;;;;;;;-147.65;100.00;57646.63;10459154;28;20041;-80
2023/08/27 18:18:10;;;;;;;4.65;3.17;;;;;;;-147.65;100.00;57646.63;10424719;28;20500;-81
2023/08/27 18:23:10;;;;;;;12.68;4.13;;;;;;;-147.65;100.00;57646.63;10418671;28;20037;-80
2023/08/27 18:28:11;;;;;;;6.97;4.28;;;;;;;-147.65;100.00;57646.63;10412343;28;20048;-79
2023/08/27 18:33:11;;;;;;;5.18;2.95;;;;;;;-147.65;100.00;57646.63;10437903;28;20495;-80
2023/08/27 18:38:12;;;;;;;5.00;3.35;;;;;;;-147.65;100.00;57646.63;10421156;28;20040;-80
2023/08/27 18:43:12;;;;;;;6.40;3.13;;;;;;;-147.65;100.00;57646.63;10403412;28;20133;-79
2023/08/27 18:48:13;;;;;;;5.97;3.38;;;;;;;-147.65;100.00;57646.63;10419600;28;20530;-80
2023/08/27 18:53:13;;;;;;;5.75;3.60;;;;;;;-147.65;100.00;57646.63;10422645;28;20037;-80
2023/08/27 18:58:14;;;;;;;4.97;3.50;;;;;;;-147.65;100.00;57646.63;10432743;28;20080;-80
2023/08/27 19:03:14;;;;;;;10.02;4.10;;;;;;;-147.65;100.00;57646.63;10416305;28;20092;-80
2023/08/27 19:08:15;;;;;;;7.32;3.47;;;;;;;-147.65;100.00;57646.63;10423081;28;20041;-80
2023/08/27 19:13:15;;;;;;;5.82;3.38;;;;;;;-147.65;100.00;57646.63;10412326;28;20125;-80
2023/08/27 19:18:16;;;;;;;6.78;3.50;;;;;;;-147.65;100.00;57646.63;10423320;28;20057;-79
2023/08/27 19:23:17;;;;;;;5.05;3.90;;;;;;;-147.65;100.00;57646.63;10424120;28;20378;-80
2023/08/27 19:28:17;;;;;;;10.40;5.93;;;;;;;-147.65;100.00;57646.63;10432495;28;20068;-80
2023/08/27 19:33:18;;;;;;;13.90;6.05;;;;;;;-147.65;100.00;57646.63;10423401;28;20045;-80
2023/08/27 19:38:18;;;;;;;14.30;5.80;;;;;;;-147.65;100.00;57646.63;10429037;28;20033;-80
2023/08/27 19:43:19;;;;;;;9.02;6.38;;;;;;;-147.65;100.00;57646.63;10430492;28;20049;-80
2023/08/27 19:48:20;;;;;;;8.40;6.85;;;;;;;-147.65;100.00;57646.63;10434912;28;20053;-81
2023/08/27 19:53:20;;;;;;;8.77;6.07;;;;;;;-147.65;100.00;57646.63;10428235;28;20034;-80
2023/08/27 19:58:21;;;;;;;9.90;6.05;;;;;;;-147.65;100.00;57646.63;10435782;28;20051;-80
2023/08/27 20:03:21;;;;;;;9.80;6.57;;;;;;;-147.65;100.00;57646.63;10432995;28;20128;-81
2023/08/27 20:08:22;;;;;;;14.70;7.38;;;;;;;-147.65;100.00;57646.63;10426083;28;20098;-79
2023/08/27 20:13:22;;;;;;;13.32;7.70;;;;;;;-147.65;100.00;57646.63;10412610;28;20041;-79
2023/08/27 20:18:23;;;;;;;11.77;6.80;;;;;;;-147.65;100.00;57646.63;10432474;28;20037;-78
2023/08/27 20:23:23;;;;;;;7.18;5.50;;;;;;;-147.65;100.00;57646.63;10431660;28;20041;-79
2023/08/27 20:28:24;;;;;;;10.15;7.45;;;;;;;-147.65;100.00;57646.63;10433772;28;20515;-79
2023/08/27 20:33:24;;;;;;;8.65;6.50;;;;;;;-147.65;100.00;57646.63;10425261;28;20045;-79
2023/08/27 20:38:25;;;;;;;12.75;8.00;;;;;;;-147.65;100.00;57646.63;10436058;28;20400;-79
2023/08/27 20:43:26;;;;;;;11.85;7.85;;;;;;;-147.65;100.00;57646.63;10433314;28;20081;-78
2023/08/27 20:48:27;;;;;;;11.18;8.88;;;;;;;-147.65;100.00;57646.63;10434727;28;20382;-79
2023/08/27 20:53:28;;;;;;;13.15;7.75;;;;;;;-147.65;100.00;57646.63;10416042;28;20030;-79
2023/08/27 20:58:28;;;;;;;12.10;8.45;;;;;;;-147.65;100.00;57646.63;10430494;28;20045;-79
2023/08/27 21:03:29;;;;;;;11.15;7.70;;;;;;;-147.65;100.00;57646.63;10437381;28;20059;-79
2023/08/27 21:08:30;;;;;;;12.07;9.50;;;;;;;-147.65;100.00;57646.63;10468563;28;20557;-78
2023/08/27 21:13:30;;;;;;;13.93;8.40;;;;;;;-147.65;100.00;57646.63;10486652;28;20040;-79
2023/08/27 21:18:31;;;;;;;11.85;9.02;;;;;;;-147.65;100.00;57646.63;10488735;28;20048;-79
2023/08/27 21:23:31;;;;;;;19.90;10.77;;;;;;;-147.65;100.00;57646.63;10501517;28;20163;-79
2023/08/27 21:28:32;;;;;;;18.17;11.30;;;;;;;-147.65;100.00;57646.63;10506077;28;20044;-79
2023/08/27 21:33:32;;;;;;;19.75;11.57;;;;;;;-147.65;100.00;57646.63;10477699;28;20504;-78
2023/08/27 21:38:33;;;;;;;17.50;11.93;;;;;;;-147.65;100.00;57646.63;10492850;28;20051;-79
2023/08/27 21:43:35;;;;;;;17.70;12.80;;;;;;;-147.65;100.00;57646.63;10509132;28;20101;-79
2023/08/27 21:48:35;;;;;;;18.17;11.32;;;;;;;-147.65;100.00;57646.63;10504964;28;20548;-79
2023/08/27 21:53:36;;;;;;;19.20;13.57;;;;;;;-147.65;100.00;57646.63;10487839;28;20127;-79
2023/08/27 21:58:36;;;;;;;20.13;13.35;;;;;;;-147.65;100.00;57646.63;10447180;28;20041;-79
2023/08/27 22:03:37;;;;;;;18.95;13.93;;;;;;;-147.65;100.00;57646.63;10490230;28;20048;-79
2023/08/27 22:08:38;;;;;;;18.20;12.95;;;;;;;-147.65;100.00;57646.63;10462071;28;20048;-79
2023/08/27 22:13:38;;;;;;;24.75;15.18;;;;;;;-147.65;100.00;57646.63;10462036;28;20078;-79
2023/08/27 22:18:39;;;;;;;22.73;14.40;;;;;;;-147.65;100.00;57646.63;10459560;28;20040;-80
2023/08/27 22:23:39;;;;;;;19.73;14.38;;;;;;;-147.65;100.00;57646.63;10475136;28;20043;-79
2023/08/27 22:28:40;;;;;;;16.88;14.30;;;;;;;-147.65;100.00;57646.63;10503096;28;20466;-79